createdAt,value
2019-05-05T00:02:07.793Z,7.85
2019-05-05T00:04:35.956Z,9.25
2019-05-05T00:07:04.361Z,6.75
2019-05-05T00:09:34.544Z,8.18
2019-05-05T00:12:08.153Z,8.43
2019-05-05T00:14:45.488Z,8.03
2019-05-05T00:17:22.524Z,7.37
2019-05-05T00:19:49.041Z,7.97
2019-05-05T00:22:15.490Z,7.87
2019-05-05T00:24:44.241Z,6.78
2019-05-05T00:27:09.960Z,7.85
2019-05-05T00:29:36.239Z,7.85
2019-05-05T00:32:04.819Z,5.95
2019-05-05T00:34:30.986Z,8.78
2019-05-05T00:36:57.372Z,6.90
2019-05-05T00:39:25.489Z,7.12
2019-05-05T00:41:51.845Z,6.97
2019-05-05T00:44:18.299Z,6.05
2019-05-05T00:46:55.775Z,7.97
2019-05-05T00:49:25.026Z,6.95
2019-05-05T00:51:51.412Z,7.15
2019-05-05T00:54:18.381Z,7.70
2019-05-05T00:56:45.132Z,9.15
2019-05-05T00:59:14.675Z,9.90
2019-05-05T01:01:44.738Z,7.85
2019-05-05T01:04:14.484Z,6.70
2019-05-05T01:06:41.114Z,7.10
2019-05-05T01:09:09.307Z,8.03
2019-05-05T01:11:35.710Z,7.35
2019-05-05T01:14:02.029Z,10.90
2019-05-05T01:16:28.549Z,8.23
2019-05-05T01:18:55.468Z,9.35
2019-05-05T01:21:24.288Z,7.10
2019-05-05T01:23:50.245Z,6.92
2019-05-05T01:26:16.748Z,8.30
2019-05-05T01:28:44.725Z,9.18
2019-05-05T01:31:14.637Z,8.23
2019-05-05T01:33:59.710Z,8.43
2019-05-05T01:36:26.056Z,8.88
2019-05-05T01:38:57.217Z,9.10
2019-05-05T01:41:28.178Z,11.25
2019-05-05T01:43:54.951Z,8.30
2019-05-05T01:46:21.579Z,10.10
2019-05-05T01:48:47.925Z,7.70
2019-05-05T01:51:14.457Z,7.47
2019-05-05T01:53:40.735Z,8.48
2019-05-05T01:56:07.187Z,9.28
2019-05-05T01:58:34.896Z,9.60
2019-05-05T02:01:01.369Z,8.98
2019-05-05T02:03:27.637Z,7.30
2019-05-05T02:05:54.687Z,7.92
2019-05-05T02:08:21.167Z,9.20
2019-05-05T02:10:47.534Z,8.33
2019-05-05T02:13:15.961Z,8.30
2019-05-05T02:15:42.128Z,10.53
2019-05-05T02:18:08.618Z,7.37
2019-05-05T02:20:47.338Z,9.20
2019-05-05T02:23:15.712Z,9.93
2019-05-05T02:25:42.087Z,8.60
2019-05-05T02:28:08.555Z,7.75
2019-05-05T02:30:56.671Z,8.15
2019-05-05T02:33:25.927Z,9.88
2019-05-05T02:35:51.459Z,8.88
2019-05-05T02:38:17.945Z,10.85
2019-05-05T02:40:46.181Z,10.63
2019-05-05T02:43:15.135Z,10.72
2019-05-05T02:45:49.905Z,10.20
2019-05-05T02:48:18.188Z,8.10
2019-05-05T02:51:01.236Z,9.23
2019-05-05T02:53:27.083Z,10.72
2019-05-05T02:55:58.065Z,10.88
2019-05-05T02:58:25.929Z,10.80
2019-05-05T03:00:54.463Z,10.32
2019-05-05T03:03:23.429Z,9.98
2019-05-05T03:05:50.030Z,10.63
2019-05-05T03:08:16.683Z,11.63
2019-05-05T03:10:44.302Z,9.58
2019-05-05T03:13:11.310Z,9.33
2019-05-05T03:15:47.383Z,7.95
2019-05-05T03:18:13.857Z,10.58
2019-05-05T03:20:40.233Z,11.18
2019-05-05T03:23:06.928Z,10.00
2019-05-05T03:25:33.469Z,9.35
2019-05-05T03:27:59.842Z,8.60
2019-05-05T03:30:27.203Z,11.22
2019-05-05T03:32:55.899Z,12.23
2019-05-05T03:35:23.679Z,11.88
2019-05-05T03:37:50.098Z,9.93
2019-05-05T03:40:18.831Z,9.33
2019-05-05T03:42:50.070Z,11.10
2019-05-05T03:45:19.428Z,8.85
2019-05-05T03:47:45.951Z,10.43
2019-05-05T03:50:14.314Z,9.68
2019-05-05T03:52:40.774Z,10.72
2019-05-05T03:55:07.972Z,8.60
2019-05-05T03:57:34.619Z,9.05
2019-05-05T04:00:01.362Z,9.25
2019-05-05T04:02:29.655Z,10.28
2019-05-05T04:04:57.808Z,11.50
2019-05-05T04:07:24.446Z,13.75
2019-05-05T04:09:50.810Z,10.88
2019-05-05T04:12:17.271Z,10.30
2019-05-05T04:14:44.115Z,8.93
2019-05-05T04:17:18.266Z,9.73
2019-05-05T04:19:49.213Z,10.45
2019-05-05T04:22:15.646Z,9.10
2019-05-05T04:24:43.568Z,12.25
2019-05-05T04:27:10.004Z,12.40
2019-05-05T04:29:36.266Z,9.63
2019-05-05T04:32:04.450Z,10.35
2019-05-05T04:34:30.874Z,9.78
2019-05-05T04:36:57.174Z,10.98
2019-05-05T04:39:23.712Z,10.43
2019-05-05T04:41:50.005Z,7.62
2019-05-05T04:44:17.930Z,10.93
2019-05-05T04:46:46.253Z,9.43
2019-05-05T04:49:31.433Z,10.18
2019-05-05T04:51:59.556Z,10.60
2019-05-05T04:54:27.835Z,8.80
2019-05-05T04:56:54.165Z,8.05
2019-05-05T04:59:20.439Z,9.85
2019-05-05T05:01:48.591Z,9.70
2019-05-05T05:04:24.324Z,11.40
2019-05-05T05:06:58.527Z,9.93
2019-05-05T05:09:24.888Z,10.43
2019-05-05T05:11:51.565Z,9.63
2019-05-05T05:14:17.863Z,9.48
2019-05-05T05:16:44.552Z,8.70
2019-05-05T05:19:11.025Z,8.15
2019-05-05T05:21:37.467Z,7.55
2019-05-05T05:24:04.071Z,10.15
2019-05-05T05:26:30.544Z,8.70
2019-05-05T05:28:56.804Z,9.70
2019-05-05T05:31:24.482Z,9.68
2019-05-05T05:33:50.924Z,10.05
2019-05-05T05:36:17.414Z,9.88
2019-05-05T05:38:45.715Z,8.75
2019-05-05T05:41:30.701Z,7.25
2019-05-05T05:43:58.879Z,8.25
2019-05-05T05:46:29.917Z,9.03
2019-05-05T05:49:04.529Z,7.72
2019-05-05T05:51:31.104Z,9.43
2019-05-05T05:53:57.400Z,7.83
2019-05-05T05:56:24.943Z,7.85
2019-05-05T05:58:51.463Z,8.08
2019-05-05T06:01:17.731Z,8.73
2019-05-05T06:03:44.428Z,8.78
2019-05-05T06:06:10.743Z,8.75
2019-05-05T06:08:37.193Z,7.50
2019-05-05T06:11:04.460Z,6.90
2019-05-05T06:13:30.991Z,8.98
2019-05-05T06:15:57.375Z,8.10
2019-05-05T06:18:24.320Z,8.58
2019-05-05T06:20:50.962Z,7.87
2019-05-05T06:23:17.463Z,8.85
2019-05-05T06:25:44.485Z,7.25
2019-05-05T06:28:11.255Z,11.05
2019-05-05T06:30:37.588Z,9.35
2019-05-05T06:33:04.867Z,8.58
2019-05-05T06:35:33.871Z,9.35
2019-05-05T06:38:00.174Z,6.45
2019-05-05T06:40:37.119Z,7.92
2019-05-05T06:43:11.387Z,6.40
2019-05-05T06:45:44.319Z,19.00
2019-05-05T06:48:10.682Z,8.73
2019-05-05T06:50:36.932Z,5.92
2019-05-05T06:53:04.283Z,6.40
2019-05-05T06:55:30.674Z,6.58
2019-05-05T06:57:56.923Z,6.78
2019-05-05T07:00:24.160Z,6.40
2019-05-05T07:02:50.585Z,6.05
2019-05-05T07:05:17.242Z,6.70
2019-05-05T07:07:43.655Z,6.75
2019-05-05T07:10:10.161Z,5.92
2019-05-05T07:12:36.593Z,5.33
2019-05-05T07:15:06.678Z,6.65
2019-05-05T07:17:33.909Z,5.33
2019-05-05T07:20:00.314Z,5.53
2019-05-05T07:22:26.673Z,4.75
2019-05-05T07:24:54.222Z,3.72
2019-05-05T07:27:20.686Z,5.87
2019-05-05T07:29:46.928Z,5.83
2019-05-05T07:32:14.151Z,6.72
2019-05-05T07:34:59.381Z,4.17
2019-05-05T07:37:25.650Z,4.62
2019-05-05T07:39:54.027Z,5.53
2019-05-05T07:42:20.566Z,4.35
2019-05-05T07:44:46.901Z,7.03
2019-05-05T07:47:14.558Z,4.28
2019-05-05T07:49:40.917Z,4.33
2019-05-05T07:52:07.238Z,4.37
2019-05-05T07:54:34.191Z,3.67
2019-05-05T07:57:00.642Z,3.77
2019-05-05T07:59:26.918Z,3.67
2019-05-05T08:01:54.779Z,5.12
2019-05-05T08:04:21.309Z,6.00
2019-05-05T08:06:47.695Z,5.97
2019-05-05T08:09:14.591Z,6.83
2019-05-05T08:11:43.413Z,5.47
2019-05-05T08:14:09.335Z,6.75
2019-05-05T08:16:37.512Z,10.15
2019-05-05T08:19:05.806Z,6.53
2019-05-05T08:21:34.104Z,7.30
2019-05-05T08:24:04.534Z,7.03
2019-05-05T08:26:41.377Z,4.65
2019-05-05T08:29:24.636Z,7.55
2019-05-05T08:31:53.674Z,6.12
2019-05-05T08:34:20.110Z,5.97
2019-05-05T08:36:46.490Z,8.90
2019-05-05T08:39:14.231Z,8.13
2019-05-05T08:41:40.864Z,7.03
2019-05-05T08:44:07.125Z,9.58
2019-05-05T08:46:34.048Z,10.08
2019-05-05T08:49:00.409Z,9.45
2019-05-05T08:51:26.903Z,8.98
2019-05-05T08:53:54.643Z,8.68
2019-05-05T08:56:23.706Z,15.15
2019-05-05T08:58:50.029Z,13.50
2019-05-05T09:01:16.527Z,14.98
2019-05-05T09:03:44.316Z,14.23
2019-05-05T09:06:11.030Z,17.12
2019-05-05T09:08:37.404Z,14.07
2019-05-05T09:11:04.723Z,16.37
2019-05-05T09:13:31.385Z,16.57
2019-05-05T09:15:57.857Z,15.00
2019-05-05T09:18:24.679Z,15.38
2019-05-05T09:20:51.197Z,14.15
2019-05-05T09:23:17.496Z,15.05
2019-05-05T09:26:00.736Z,15.18
2019-05-05T09:28:44.610Z,15.13
2019-05-05T09:31:11.272Z,14.38
2019-05-05T09:33:37.560Z,15.83
2019-05-05T09:36:04.680Z,15.38
2019-05-05T09:38:31.309Z,15.70
2019-05-05T09:40:57.612Z,15.05
2019-05-05T09:43:24.165Z,15.95
2019-05-05T09:45:50.670Z,16.37
2019-05-05T09:48:17.162Z,11.85
2019-05-05T09:50:43.916Z,12.98
2019-05-05T09:53:10.381Z,14.13
2019-05-05T09:55:36.687Z,12.80
2019-05-05T09:58:04.484Z,11.88
2019-05-05T10:00:33.637Z,14.07
2019-05-05T10:03:00.253Z,19.87
2019-05-05T10:05:26.880Z,16.23
2019-05-05T10:07:54.475Z,14.98
2019-05-05T10:10:20.930Z,16.48
2019-05-05T10:12:47.872Z,21.02
2019-05-05T10:15:14.776Z,14.55
2019-05-05T10:17:41.688Z,21.55
2019-05-05T10:20:08.536Z,14.93
2019-05-05T10:22:34.999Z,18.73
2019-05-05T10:25:19.950Z,14.53
2019-05-05T10:27:47.823Z,14.13
2019-05-05T10:30:14.369Z,11.73
2019-05-05T10:32:40.619Z,10.15
2019-05-05T10:35:07.113Z,14.75
2019-05-05T10:37:34.652Z,11.65
2019-05-05T10:40:03.627Z,10.65
2019-05-05T10:42:48.357Z,7.62
2019-05-05T10:45:14.887Z,9.58
2019-05-05T10:47:41.285Z,9.60
2019-05-05T10:50:07.860Z,12.00
2019-05-05T10:52:34.153Z,10.85
2019-05-05T10:55:00.498Z,12.20
2019-05-05T10:57:26.864Z,10.08
2019-05-05T10:59:53.960Z,14.28
2019-05-05T11:02:20.621Z,13.20
2019-05-05T11:04:47.084Z,14.43
2019-05-05T11:07:14.560Z,13.68
2019-05-05T11:09:41.400Z,15.58
2019-05-05T11:12:07.683Z,14.83
2019-05-05T11:14:34.037Z,16.45
2019-05-05T11:17:00.296Z,20.27
2019-05-05T11:19:26.686Z,13.00
2019-05-05T11:21:54.033Z,13.25
2019-05-05T11:24:20.653Z,15.63
2019-05-05T11:26:47.120Z,11.93
2019-05-05T11:29:13.675Z,11.30
2019-05-05T11:31:40.040Z,13.95
2019-05-05T11:34:08.445Z,13.70
2019-05-05T11:36:51.695Z,14.58
2019-05-05T11:39:18.074Z,12.73
2019-05-05T11:41:44.303Z,12.65
2019-05-05T11:44:10.786Z,13.25
2019-05-05T11:46:37.138Z,13.48
2019-05-05T11:49:04.922Z,12.85
2019-05-05T11:51:31.376Z,15.85
2019-05-05T11:53:57.831Z,13.53
2019-05-05T11:56:24.379Z,15.98
2019-05-05T11:58:50.921Z,10.63
2019-05-05T12:01:19.651Z,8.15
2019-05-05T12:03:46.212Z,14.40
2019-05-05T12:06:14.767Z,11.50
2019-05-05T12:08:43.614Z,11.53
2019-05-05T12:11:09.416Z,9.63
2019-05-05T12:13:35.845Z,11.28
2019-05-05T12:16:04.713Z,9.68
2019-05-05T12:18:31.582Z,11.48
2019-05-05T12:20:58.075Z,12.73
2019-05-05T12:23:24.315Z,10.18
2019-05-05T12:26:11.155Z,9.23
2019-05-05T12:28:45.047Z,15.15
2019-05-05T12:31:28.555Z,13.40
2019-05-05T12:33:55.034Z,15.23
2019-05-05T12:36:23.550Z,12.53
2019-05-05T12:38:49.950Z,12.37
2019-05-05T12:41:16.437Z,13.38
2019-05-05T12:43:44.111Z,13.48
2019-05-05T12:46:29.086Z,13.30
2019-05-05T12:48:57.337Z,9.58
2019-05-05T12:51:25.104Z,15.80
2019-05-05T12:53:51.335Z,17.55
2019-05-05T12:56:17.645Z,10.48
2019-05-05T12:58:44.149Z,14.65
2019-05-05T13:01:30.919Z,12.40
2019-05-05T13:03:57.490Z,13.75
2019-05-05T13:06:24.080Z,11.95
2019-05-05T13:08:50.585Z,17.40
2019-05-05T13:11:17.111Z,14.75
2019-05-05T13:13:44.066Z,15.80
2019-05-05T13:16:10.431Z,19.52
2019-05-05T13:18:36.899Z,12.03
2019-05-05T13:21:11.431Z,14.28
2019-05-05T13:23:58.057Z,12.43
2019-05-05T13:26:32.167Z,10.23
2019-05-05T13:28:58.541Z,13.03
2019-05-05T13:31:24.974Z,8.90
2019-05-05T13:33:51.355Z,10.53
2019-05-05T13:36:17.639Z,10.28
2019-05-05T13:38:44.013Z,7.85
2019-05-05T13:41:10.301Z,8.55
2019-05-05T13:43:36.704Z,9.30
2019-05-05T13:46:05.126Z,10.48
2019-05-05T13:48:31.439Z,9.03
2019-05-05T13:51:05.500Z,9.93
2019-05-05T13:53:34.094Z,9.73
2019-05-05T13:56:11.156Z,9.38
2019-05-05T13:58:28.450Z,7.70
2019-05-05T14:00:54.885Z,12.53
2019-05-05T14:03:23.393Z,9.05
2019-05-05T14:05:49.403Z,11.35
2019-05-05T14:08:15.894Z,8.50
2019-05-05T14:10:42.269Z,12.30
2019-05-05T14:13:10.510Z,8.85
2019-05-05T14:15:37.007Z,8.45
2019-05-05T14:18:03.881Z,8.88
2019-05-05T14:20:30.308Z,9.38
2019-05-05T14:22:56.818Z,9.90
2019-05-05T14:25:25.264Z,8.95
2019-05-05T14:27:51.654Z,7.83
2019-05-05T14:30:28.113Z,10.82
2019-05-05T14:32:54.944Z,6.78
2019-05-05T14:35:34.102Z,11.45
2019-05-05T14:38:08.346Z,12.58
2019-05-05T14:40:35.003Z,9.55
2019-05-05T14:43:01.827Z,10.00
2019-05-05T14:45:28.173Z,7.35
2019-05-05T14:47:54.553Z,11.28
2019-05-05T14:50:20.936Z,7.53
2019-05-05T14:52:47.213Z,9.88
2019-05-05T14:55:14.144Z,9.03
2019-05-05T14:57:40.553Z,9.05
2019-05-05T15:00:08.830Z,9.90
2019-05-05T15:02:35.474Z,16.57
2019-05-05T15:05:20.413Z,11.48
2019-05-05T15:07:53.595Z,14.28
2019-05-05T15:10:24.236Z,10.70
2019-05-05T15:12:58.395Z,11.10
2019-05-05T15:15:24.894Z,11.90
2019-05-05T15:17:53.515Z,15.10
2019-05-05T15:20:19.526Z,11.80
2019-05-05T15:22:45.857Z,13.05
2019-05-05T15:25:12.361Z,11.93
2019-05-05T15:27:38.608Z,9.63
2019-05-05T15:30:06.041Z,12.20
2019-05-05T15:32:34.253Z,10.95
2019-05-05T15:35:00.473Z,9.55
2019-05-05T15:37:26.863Z,16.57
2019-05-05T15:39:53.637Z,14.15
2019-05-05T15:42:20.082Z,10.90
2019-05-05T15:44:46.372Z,10.78
2019-05-05T15:47:12.665Z,13.43
2019-05-05T15:49:38.951Z,16.23
2019-05-05T15:52:07.152Z,12.20
2019-05-05T15:54:33.950Z,11.50
2019-05-05T15:57:05.375Z,10.50
2019-05-05T15:59:28.676Z,11.18
2019-05-05T16:01:55.087Z,11.48
2019-05-05T16:04:23.435Z,14.05
2019-05-05T16:06:49.616Z,11.08
2019-05-05T16:09:15.965Z,13.75
2019-05-05T16:11:44.059Z,12.00
2019-05-05T16:14:10.412Z,16.73
2019-05-05T16:16:56.082Z,9.90
2019-05-05T16:19:30.443Z,11.53
2019-05-05T16:21:58.636Z,14.60
2019-05-05T16:24:26.826Z,11.40
2019-05-05T16:26:53.740Z,11.55
2019-05-05T16:29:21.506Z,10.72
2019-05-05T16:31:47.984Z,10.75
2019-05-05T16:34:14.304Z,8.28
2019-05-05T16:36:40.555Z,10.95
2019-05-05T16:39:07.029Z,9.95
2019-05-05T16:41:34.059Z,16.42
2019-05-05T16:44:00.620Z,10.30
2019-05-05T16:46:26.952Z,6.10
2019-05-05T16:48:54.145Z,6.97
2019-05-05T16:51:22.527Z,9.85
2019-05-05T16:53:48.891Z,10.75
2019-05-05T16:56:16.065Z,6.60
2019-05-05T16:58:42.541Z,7.28
2019-05-05T17:01:11.179Z,8.55
2019-05-05T17:03:37.688Z,6.87
2019-05-05T17:06:04.013Z,9.05
2019-05-05T17:08:33.809Z,7.10
2019-05-05T17:11:00.520Z,9.38
2019-05-05T17:13:29.070Z,8.13
2019-05-05T17:16:00.673Z,8.73
2019-05-05T17:18:35.738Z,9.45
2019-05-05T17:21:04.084Z,7.90
2019-05-05T17:23:30.762Z,11.85
2019-05-05T17:25:57.275Z,10.90
2019-05-05T17:28:23.831Z,9.13
2019-05-05T17:30:50.584Z,7.60
2019-05-05T17:33:16.936Z,8.25
2019-05-05T17:35:43.291Z,10.05
2019-05-05T17:38:13.573Z,10.18
2019-05-05T17:40:44.468Z,10.23
2019-05-05T17:43:30.699Z,11.43
2019-05-05T17:45:58.899Z,9.93
2019-05-05T17:48:47.176Z,9.13
2019-05-05T17:51:18.524Z,11.35
2019-05-05T17:53:49.420Z,7.50
2019-05-05T17:56:15.972Z,9.18
2019-05-05T17:58:44.358Z,11.75
2019-05-05T18:01:10.581Z,8.38
2019-05-05T18:03:37.259Z,9.88
2019-05-05T18:06:20.921Z,10.60
2019-05-05T18:09:01.559Z,11.83
2019-05-05T18:11:44.204Z,11.12
2019-05-05T18:14:18.233Z,7.85
2019-05-05T18:16:44.860Z,11.22
2019-05-05T18:19:11.461Z,9.58
2019-05-05T18:21:38.032Z,11.33
2019-05-05T18:24:04.722Z,11.05
2019-05-05T18:26:31.216Z,9.65
2019-05-05T18:28:57.758Z,11.95
2019-05-05T18:31:24.391Z,9.65
2019-05-05T18:33:51.146Z,9.18
2019-05-05T18:36:20.124Z,9.40
2019-05-05T18:38:47.577Z,10.10
2019-05-05T18:41:40.932Z,11.12
2019-05-05T18:44:11.116Z,9.78
2019-05-05T18:46:37.686Z,13.22
2019-05-05T18:49:04.505Z,15.23
2019-05-05T18:51:31.070Z,9.83
2019-05-05T18:53:57.743Z,11.20
2019-05-05T18:56:24.203Z,10.72
2019-05-05T18:58:59.635Z,12.10
2019-05-05T19:01:44.449Z,9.25
2019-05-05T19:04:13.646Z,10.82
2019-05-05T19:06:47.170Z,12.25
2019-05-05T19:09:15.849Z,7.95
2019-05-05T19:11:43.608Z,9.98
2019-05-05T19:14:10.447Z,10.30
2019-05-05T19:16:36.998Z,9.90
2019-05-05T19:19:03.759Z,10.82
2019-05-05T19:21:34.049Z,13.10
2019-05-05T19:24:00.559Z,12.35
2019-05-05T19:27:26.347Z,9.95
2019-05-05T19:29:09.725Z,13.95
2019-05-05T19:31:36.696Z,15.50
2019-05-05T19:34:04.041Z,9.38
2019-05-05T19:36:30.766Z,11.35
2019-05-05T19:38:57.306Z,10.58
2019-05-05T19:41:23.879Z,13.53
2019-05-05T19:43:54.771Z,11.00
2019-05-05T19:46:34.644Z,11.90
2019-05-05T19:49:15.316Z,10.40
2019-05-05T19:51:44.203Z,13.83
2019-05-05T19:54:14.211Z,11.83
2019-05-05T19:56:44.557Z,10.53
2019-05-05T19:59:11.052Z,11.00
2019-05-05T20:01:37.963Z,12.07
2019-05-05T20:04:05.023Z,11.68
2019-05-05T20:06:31.391Z,8.35
2019-05-05T20:08:58.246Z,12.20
2019-05-05T20:11:25.159Z,9.88
2019-05-05T20:14:04.742Z,8.83
2019-05-05T20:16:24.644Z,13.05
2019-05-05T20:18:51.678Z,13.32
2019-05-05T20:21:18.135Z,9.68
2019-05-05T20:23:48.429Z,11.15
2019-05-05T20:26:14.746Z,12.00
2019-05-05T20:28:41.671Z,9.15
2019-05-05T20:31:08.124Z,9.30
2019-05-05T20:33:39.059Z,10.23
2019-05-05T20:38:46.376Z,10.78
2019-05-05T20:41:16.503Z,12.18
2019-05-05T20:43:44.784Z,10.68
2019-05-05T20:46:11.245Z,8.78
2019-05-05T20:48:40.954Z,7.90
2019-05-05T20:51:06.068Z,9.43
2019-05-05T20:53:34.260Z,9.95
2019-05-05T20:56:00.882Z,9.58
2019-05-05T20:58:27.379Z,8.98
2019-05-05T21:00:54.919Z,10.13
2019-05-05T21:03:23.175Z,8.70
2019-05-05T21:05:49.628Z,7.65
2019-05-05T21:08:15.906Z,9.55
2019-05-05T21:10:44.243Z,10.03
2019-05-05T21:13:10.939Z,9.60
2019-05-05T21:15:37.440Z,9.60
2019-05-05T21:18:04.941Z,9.83
2019-05-05T21:20:31.429Z,9.13
2019-05-05T21:22:59.859Z,11.03
2019-05-05T21:25:28.075Z,11.55
2019-05-05T21:27:54.579Z,12.25
2019-05-05T21:30:20.923Z,10.45
2019-05-05T21:32:47.377Z,9.15
2019-05-05T21:35:14.256Z,10.13
2019-05-05T21:37:40.742Z,8.08
2019-05-05T21:40:07.300Z,7.08
2019-05-05T21:42:35.008Z,11.80
2019-05-05T21:45:01.498Z,9.78
2019-05-05T21:47:27.823Z,10.25
2019-05-05T21:49:54.390Z,10.65
2019-05-05T21:52:25.826Z,11.48
2019-05-05T21:54:56.841Z,10.65
2019-05-05T21:57:34.671Z,7.90
2019-05-05T22:00:01.293Z,9.90
2019-05-05T22:02:27.895Z,8.88
2019-05-05T22:04:54.456Z,14.63
2019-05-05T22:07:21.016Z,10.48
2019-05-05T22:09:47.548Z,9.98
2019-05-05T22:12:13.888Z,10.95
2019-05-05T22:14:40.292Z,11.70
2019-05-05T22:17:06.688Z,9.75
2019-05-05T22:19:37.596Z,12.53
2019-05-05T22:22:08.558Z,10.20
2019-05-05T22:24:35.772Z,13.15
2019-05-05T22:27:04.546Z,10.40
2019-05-05T22:29:30.646Z,9.20
2019-05-05T22:31:57.001Z,13.88
2019-05-05T22:34:24.061Z,11.83
2019-05-05T22:36:52.573Z,14.35
2019-05-05T22:39:19.045Z,10.70
2019-05-05T22:41:45.731Z,11.70
2019-05-05T22:44:13.885Z,11.20
2019-05-05T22:46:40.140Z,12.95
2019-05-05T22:49:06.659Z,11.50
2019-05-05T22:51:33.789Z,11.80
2019-05-05T22:54:00.524Z,14.15
2019-05-05T22:56:26.972Z,12.75
2019-05-05T22:58:54.683Z,12.43
2019-05-05T23:01:21.486Z,14.30
2019-05-05T23:04:07.968Z,14.13
2019-05-05T23:06:39.092Z,8.50
2019-05-05T23:09:09.501Z,14.30
2019-05-05T23:11:35.882Z,12.82
2019-05-05T23:14:20.811Z,12.18
2019-05-05T23:16:53.711Z,11.45
2019-05-05T23:19:20.884Z,14.78
2019-05-05T23:21:49.163Z,10.35
2019-05-05T23:24:17.356Z,11.48
2019-05-05T23:26:45.824Z,12.35
2019-05-05T23:29:12.312Z,11.45
2019-05-05T23:31:38.591Z,10.43
2019-05-05T23:34:05.011Z,14.47
2019-05-05T23:36:33.808Z,12.53
2019-05-05T23:38:59.531Z,12.55
2019-05-05T23:41:25.861Z,15.78
2019-05-05T23:43:54.306Z,15.88
2019-05-05T23:46:20.452Z,11.53
2019-05-05T23:48:47.170Z,14.33
2019-05-05T23:51:14.065Z,13.08
2019-05-05T23:53:40.607Z,15.20
2019-05-05T23:56:06.967Z,12.33
2019-05-05T23:58:34.752Z,15.35
